sensor_id;sensor_type;location;lat;lon;timestamp;P1;durP1;ratioP1;P2;durP2;ratioP2
41952;SDS011;63613;28.200;112.870;2023-08-06T00:00:56;14.88;;;13.38;;
41952;SDS011;63613;28.200;112.870;2023-08-06T00:03:23;15.00;;;13.40;;
41952;SDS011;63613;28.200;112.870;2023-08-06T00:05:50;15.20;;;13.70;;
41952;SDS011;63613;28.200;112.870;2023-08-06T00:08:17;15.30;;;13.80;;
41952;SDS011;63613;28.200;112.870;2023-08-06T00:10:43;16.90;;;13.75;;
41952;SDS011;63613;28.200;112.870;2023-08-06T00:13:10;15.82;;;14.32;;
41952;SDS011;63613;28.200;112.870;2023-08-06T00:15:37;15.00;;;13.45;;
41952;SDS011;63613;28.200;112.870;2023-08-06T00:18:03;14.82;;;13.32;;
41952;SDS011;63613;28.200;112.870;2023-08-06T00:20:30;15.60;;;14.10;;
41952;SDS011;63613;28.200;112.870;2023-08-06T00:23:18;14.77;;;13.45;;
41952;SDS011;63613;28.200;112.870;2023-08-06T00:25:47;16.08;;;14.48;;
41952;SDS011;63613;28.200;112.870;2023-08-06T00:28:14;15.73;;;14.23;;
41952;SDS011;63613;28.200;112.870;2023-08-06T00:30:41;15.18;;;13.77;;
41952;SDS011;63613;28.200;112.870;2023-08-06T00:33:07;15.75;;;14.35;;
41952;SDS011;63613;28.200;112.870;2023-08-06T00:35:34;15.20;;;13.80;;
41952;SDS011;63613;28.200;112.870;2023-08-06T00:38:01;14.95;;;13.55;;
41952;SDS011;63613;28.200;112.870;2023-08-06T00:40:28;14.57;;;13.10;;
41952;SDS011;63613;28.200;112.870;2023-08-06T00:42:55;14.20;;;12.80;;
41952;SDS011;63613;28.200;112.870;2023-08-06T00:45:22;14.00;;;12.80;;
41952;SDS011;63613;28.200;112.870;2023-08-06T00:47:49;14.63;;;13.23;;
41952;SDS011;63613;28.200;112.870;2023-08-06T00:50:16;15.50;;;13.10;;
41952;SDS011;63613;28.200;112.870;2023-08-06T00:52:43;13.77;;;12.43;;
41952;SDS011;63613;28.200;112.870;2023-08-06T00:55:09;15.70;;;14.20;;
41952;SDS011;63613;28.200;112.870;2023-08-06T00:57:56;14.18;;;12.75;;
41952;SDS011;63613;28.200;112.870;2023-08-06T01:00:24;13.60;;;12.27;;
41952;SDS011;63613;28.200;112.870;2023-08-06T01:02:51;14.43;;;12.93;;
41952;SDS011;63613;28.200;112.870;2023-08-06T01:05:19;14.07;;;12.68;;
41952;SDS011;63613;28.200;112.870;2023-08-06T01:08:06;14.18;;;12.88;;
41952;SDS011;63613;28.200;112.870;2023-08-06T01:13:42;14.45;;;13.00;;
41952;SDS011;63613;28.200;112.870;2023-08-06T01:16:15;15.15;;;13.65;;
41952;SDS011;63613;28.200;112.870;2023-08-06T01:18:49;14.00;;;12.70;;
41952;SDS011;63613;28.200;112.870;2023-08-06T01:21:16;14.48;;;12.82;;
41952;SDS011;63613;28.200;112.870;2023-08-06T01:23:43;13.63;;;12.32;;
41952;SDS011;63613;28.200;112.870;2023-08-06T01:28:45;13.38;;;11.98;;
41952;SDS011;63613;28.200;112.870;2023-08-06T01:31:23;13.82;;;12.43;;
41952;SDS011;63613;28.200;112.870;2023-08-06T01:33:53;15.23;;;12.60;;
41952;SDS011;63613;28.200;112.870;2023-08-06T01:36:21;13.25;;;12.00;;
41952;SDS011;63613;28.200;112.870;2023-08-06T01:38:48;15.18;;;13.05;;
41952;SDS011;63613;28.200;112.870;2023-08-06T01:41:16;13.95;;;12.65;;
41952;SDS011;63613;28.200;112.870;2023-08-06T01:43:43;13.80;;;12.50;;
41952;SDS011;63613;28.200;112.870;2023-08-06T01:46:10;14.10;;;12.70;;
41952;SDS011;63613;28.200;112.870;2023-08-06T01:48:37;13.65;;;12.13;;
41952;SDS011;63613;28.200;112.870;2023-08-06T01:51:06;15.43;;;12.57;;
41952;SDS011;63613;28.200;112.870;2023-08-06T01:53:33;12.88;;;11.57;;
41952;SDS011;63613;28.200;112.870;2023-08-06T01:56:00;13.20;;;12.00;;
41952;SDS011;63613;28.200;112.870;2023-08-06T01:58:27;12.77;;;11.63;;
41952;SDS011;63613;28.200;112.870;2023-08-06T02:00:54;13.23;;;12.10;;
41952;SDS011;63613;28.200;112.870;2023-08-06T02:03:21;14.02;;;12.65;;
41952;SDS011;63613;28.200;112.870;2023-08-06T02:05:47;13.27;;;12.07;;
41952;SDS011;63613;28.200;112.870;2023-08-06T02:08:14;12.95;;;11.75;;
41952;SDS011;63613;28.200;112.870;2023-08-06T02:10:41;13.75;;;12.45;;
41952;SDS011;63613;28.200;112.870;2023-08-06T02:13:08;12.10;;;10.90;;
41952;SDS011;63613;28.200;112.870;2023-08-06T02:15:34;12.40;;;11.23;;
41952;SDS011;63613;28.200;112.870;2023-08-06T02:18:01;12.43;;;11.23;;
41952;SDS011;63613;28.200;112.870;2023-08-06T02:20:28;13.38;;;11.95;;
41952;SDS011;63613;28.200;112.870;2023-08-06T02:22:56;12.23;;;11.00;;
41952;SDS011;63613;28.200;112.870;2023-08-06T02:25:22;11.57;;;10.57;;
41952;SDS011;63613;28.200;112.870;2023-08-06T02:27:50;12.73;;;11.48;;
41952;SDS011;63613;28.200;112.870;2023-08-06T02:30:17;13.02;;;11.73;;
41952;SDS011;63613;28.200;112.870;2023-08-06T02:32:44;12.43;;;11.25;;
41952;SDS011;63613;28.200;112.870;2023-08-06T02:35:10;12.52;;;11.35;;
41952;SDS011;63613;28.200;112.870;2023-08-06T02:37:58;12.50;;;11.23;;
41952;SDS011;63613;28.200;112.870;2023-08-06T02:40:28;12.48;;;11.30;;
41952;SDS011;63613;28.200;112.870;2023-08-06T02:42:56;11.68;;;10.57;;
41952;SDS011;63613;28.200;112.870;2023-08-06T02:45:22;10.98;;;10.07;;
41952;SDS011;63613;28.200;112.870;2023-08-06T02:47:49;12.55;;;11.35;;
41952;SDS011;63613;28.200;112.870;2023-08-06T02:50:16;11.35;;;10.25;;
41952;SDS011;63613;28.200;112.870;2023-08-06T02:52:43;11.73;;;10.70;;
41952;SDS011;63613;28.200;112.870;2023-08-06T02:55:11;11.75;;;10.55;;
41952;SDS011;63613;28.200;112.870;2023-08-06T02:57:37;12.95;;;11.65;;
41952;SDS011;63613;28.200;112.870;2023-08-06T03:00:04;12.75;;;11.63;;
41952;SDS011;63613;28.200;112.870;2023-08-06T03:02:32;12.98;;;11.77;;
41952;SDS011;63613;28.200;112.870;2023-08-06T03:04:58;13.18;;;11.88;;
41952;SDS011;63613;28.200;112.870;2023-08-06T03:07:25;13.88;;;12.45;;
41952;SDS011;63613;28.200;112.870;2023-08-06T03:09:52;12.23;;;11.02;;
41952;SDS011;63613;28.200;112.870;2023-08-06T03:12:19;15.63;;;12.68;;
41952;SDS011;63613;28.200;112.870;2023-08-06T03:14:46;14.15;;;12.65;;
41952;SDS011;63613;28.200;112.870;2023-08-06T03:17:14;14.82;;;13.15;;
41952;SDS011;63613;28.200;112.870;2023-08-06T03:19:41;14.27;;;12.88;;
41952;SDS011;63613;28.200;112.870;2023-08-06T03:22:09;13.85;;;12.45;;
41952;SDS011;63613;28.200;112.870;2023-08-06T03:24:35;14.10;;;12.70;;
41952;SDS011;63613;28.200;112.870;2023-08-06T03:27:04;14.98;;;13.38;;
41952;SDS011;63613;28.200;112.870;2023-08-06T03:29:33;15.23;;;13.18;;
41952;SDS011;63613;28.200;112.870;2023-08-06T03:32:00;16.10;;;13.00;;
41952;SDS011;63613;28.200;112.870;2023-08-06T03:34:27;15.98;;;12.90;;
41952;SDS011;63613;28.200;112.870;2023-08-06T03:36:54;16.77;;;13.85;;
41952;SDS011;63613;28.200;112.870;2023-08-06T03:39:20;19.77;;;14.20;;
41952;SDS011;63613;28.200;112.870;2023-08-06T03:42:07;20.00;;;14.50;;
41952;SDS011;63613;28.200;112.870;2023-08-06T03:44:34;20.92;;;14.02;;
41952;SDS011;63613;28.200;112.870;2023-08-06T03:47:01;19.25;;;13.27;;
41952;SDS011;63613;28.200;112.870;2023-08-06T03:49:28;20.58;;;14.18;;
41952;SDS011;63613;28.200;112.870;2023-08-06T03:51:55;20.27;;;14.95;;
41952;SDS011;63613;28.200;112.870;2023-08-06T03:54:21;23.50;;;15.60;;
41952;SDS011;63613;28.200;112.870;2023-08-06T03:56:48;26.02;;;17.65;;
41952;SDS011;63613;28.200;112.870;2023-08-06T03:59:17;26.25;;;17.98;;
41952;SDS011;63613;28.200;112.870;2023-08-06T04:01:44;33.95;;;21.10;;
41952;SDS011;63613;28.200;112.870;2023-08-06T04:04:11;35.35;;;21.10;;
41952;SDS011;63613;28.200;112.870;2023-08-06T04:06:38;36.65;;;21.77;;
41952;SDS011;63613;28.200;112.870;2023-08-06T04:09:05;41.92;;;25.08;;
41952;SDS011;63613;28.200;112.870;2023-08-06T04:11:31;47.75;;;26.48;;
41952;SDS011;63613;28.200;112.870;2023-08-06T04:13:58;58.47;;;28.52;;
41952;SDS011;63613;28.200;112.870;2023-08-06T04:16:25;54.25;;;28.80;;
41952;SDS011;63613;28.200;112.870;2023-08-06T04:18:52;59.58;;;31.63;;
41952;SDS011;63613;28.200;112.870;2023-08-06T04:21:24;69.75;;;35.33;;
41952;SDS011;63613;28.200;112.870;2023-08-06T04:23:50;68.95;;;35.25;;
41952;SDS011;63613;28.200;112.870;2023-08-06T04:26:37;75.18;;;36.20;;
41952;SDS011;63613;28.200;112.870;2023-08-06T04:29:04;69.97;;;36.20;;
41952;SDS011;63613;28.200;112.870;2023-08-06T04:31:31;75.90;;;39.33;;
41952;SDS011;63613;28.200;112.870;2023-08-06T04:33:57;74.07;;;38.08;;
41952;SDS011;63613;28.200;112.870;2023-08-06T04:36:24;71.85;;;36.97;;
41952;SDS011;63613;28.200;112.870;2023-08-06T04:38:52;67.07;;;35.58;;
41952;SDS011;63613;28.200;112.870;2023-08-06T04:41:19;71.20;;;35.55;;
41952;SDS011;63613;28.200;112.870;2023-08-06T04:43:46;59.85;;;31.77;;
41952;SDS011;63613;28.200;112.870;2023-08-06T04:46:12;60.33;;;31.17;;
41952;SDS011;63613;28.200;112.870;2023-08-06T04:48:40;48.78;;;28.77;;
41952;SDS011;63613;28.200;112.870;2023-08-06T04:51:27;41.42;;;23.88;;
41952;SDS011;63613;28.200;112.870;2023-08-06T04:53:54;43.58;;;24.38;;
41952;SDS011;63613;28.200;112.870;2023-08-06T04:56:22;41.58;;;25.42;;
41952;SDS011;63613;28.200;112.870;2023-08-06T04:58:49;41.30;;;25.25;;
41952;SDS011;63613;28.200;112.870;2023-08-06T05:01:16;43.15;;;24.45;;
41952;SDS011;63613;28.200;112.870;2023-08-06T05:03:43;38.78;;;22.48;;
41952;SDS011;63613;28.200;112.870;2023-08-06T05:06:10;42.47;;;22.90;;
41952;SDS011;63613;28.200;112.870;2023-08-06T05:08:38;37.00;;;23.30;;
41952;SDS011;63613;28.200;112.870;2023-08-06T05:11:26;35.70;;;21.95;;
41952;SDS011;63613;28.200;112.870;2023-08-06T05:13:54;37.70;;;23.25;;
41952;SDS011;63613;28.200;112.870;2023-08-06T05:16:21;36.70;;;23.02;;
41952;SDS011;63613;28.200;112.870;2023-08-06T05:18:49;37.90;;;22.60;;
41952;SDS011;63613;28.200;112.870;2023-08-06T05:21:22;44.20;;;25.17;;
41952;SDS011;63613;28.200;112.870;2023-08-06T05:23:49;38.45;;;24.05;;
41952;SDS011;63613;28.200;112.870;2023-08-06T05:26:18;40.33;;;24.45;;
41952;SDS011;63613;28.200;112.870;2023-08-06T05:28:45;43.20;;;25.90;;
41952;SDS011;63613;28.200;112.870;2023-08-06T05:31:12;43.47;;;25.15;;
41952;SDS011;63613;28.200;112.870;2023-08-06T05:33:39;42.30;;;24.10;;
41952;SDS011;63613;28.200;112.870;2023-08-06T05:36:08;39.03;;;23.75;;
41952;SDS011;63613;28.200;112.870;2023-08-06T05:38:35;42.38;;;23.55;;
41952;SDS011;63613;28.200;112.870;2023-08-06T05:41:02;43.03;;;26.10;;
41952;SDS011;63613;28.200;112.870;2023-08-06T05:43:29;45.35;;;26.30;;
41952;SDS011;63613;28.200;112.870;2023-08-06T05:46:16;41.90;;;26.27;;
41952;SDS011;63613;28.200;112.870;2023-08-06T05:48:43;43.97;;;25.13;;
41952;SDS011;63613;28.200;112.870;2023-08-06T05:51:11;36.90;;;22.25;;
41952;SDS011;63613;28.200;112.870;2023-08-06T05:53:43;32.42;;;21.80;;
41952;SDS011;63613;28.200;112.870;2023-08-06T05:56:13;34.88;;;23.10;;
41952;SDS011;63613;28.200;112.870;2023-08-06T05:58:42;38.63;;;22.60;;
41952;SDS011;63613;28.200;112.870;2023-08-06T06:01:15;35.38;;;23.25;;
41952;SDS011;63613;28.200;112.870;2023-08-06T06:03:45;31.63;;;21.50;;
41952;SDS011;63613;28.200;112.870;2023-08-06T06:06:12;40.65;;;23.83;;
41952;SDS011;63613;28.200;112.870;2023-08-06T06:08:41;37.25;;;23.05;;
41952;SDS011;63613;28.200;112.870;2023-08-06T06:11:08;40.00;;;23.90;;
41952;SDS011;63613;28.200;112.870;2023-08-06T06:13:36;41.35;;;23.75;;
41952;SDS011;63613;28.200;112.870;2023-08-06T06:16:06;41.47;;;24.42;;
41952;SDS011;63613;28.200;112.870;2023-08-06T06:18:33;38.97;;;23.42;;
41952;SDS011;63613;28.200;112.870;2023-08-06T06:21:00;39.03;;;23.83;;
41952;SDS011;63613;28.200;112.870;2023-08-06T06:23:46;35.15;;;22.90;;
41952;SDS011;63613;28.200;112.870;2023-08-06T06:26:18;37.45;;;23.13;;
41952;SDS011;63613;28.200;112.870;2023-08-06T06:28:46;36.67;;;22.60;;
41952;SDS011;63613;28.200;112.870;2023-08-06T06:31:17;35.42;;;22.95;;
41952;SDS011;63613;28.200;112.870;2023-08-06T06:33:45;34.92;;;22.45;;
41952;SDS011;63613;28.200;112.870;2023-08-06T06:36:15;33.03;;;22.50;;
41952;SDS011;63613;28.200;112.870;2023-08-06T06:38:45;31.35;;;20.67;;
41952;SDS011;63613;28.200;112.870;2023-08-06T06:41:14;30.95;;;19.73;;
41952;SDS011;63613;28.200;112.870;2023-08-06T06:43:44;29.05;;;18.92;;
41952;SDS011;63613;28.200;112.870;2023-08-06T06:46:11;31.15;;;19.70;;
41952;SDS011;63613;28.200;112.870;2023-08-06T06:48:40;29.40;;;18.30;;
41952;SDS011;63613;28.200;112.870;2023-08-06T06:51:09;27.95;;;19.20;;
41952;SDS011;63613;28.200;112.870;2023-08-06T06:53:56;23.65;;;16.85;;
41952;SDS011;63613;28.200;112.870;2023-08-06T06:56:25;25.52;;;17.48;;
41952;SDS011;63613;28.200;112.870;2023-08-06T06:58:52;22.42;;;15.90;;
41952;SDS011;63613;28.200;112.870;2023-08-06T07:01:19;22.13;;;16.20;;
41952;SDS011;63613;28.200;112.870;2023-08-06T07:03:47;26.13;;;17.83;;
41952;SDS011;63613;28.200;112.870;2023-08-06T07:06:14;26.38;;;17.67;;
41952;SDS011;63613;28.200;112.870;2023-08-06T07:08:41;25.23;;;16.48;;
41952;SDS011;63613;28.200;112.870;2023-08-06T07:11:13;24.60;;;16.75;;
41952;SDS011;63613;28.200;112.870;2023-08-06T07:13:40;22.50;;;15.27;;
41952;SDS011;63613;28.200;112.870;2023-08-06T07:16:08;22.15;;;16.10;;
41952;SDS011;63613;28.200;112.870;2023-08-06T07:18:37;23.85;;;15.27;;
41952;SDS011;63613;28.200;112.870;2023-08-06T07:21:26;21.10;;;15.07;;
41952;SDS011;63613;28.200;112.870;2023-08-06T07:23:54;20.58;;;14.50;;
41952;SDS011;63613;28.200;112.870;2023-08-06T07:26:21;21.42;;;14.93;;
41952;SDS011;63613;28.200;112.870;2023-08-06T07:28:48;20.48;;;14.57;;
41952;SDS011;63613;28.200;112.870;2023-08-06T07:31:17;21.85;;;15.63;;
41952;SDS011;63613;28.200;112.870;2023-08-06T07:33:43;21.52;;;14.73;;
41952;SDS011;63613;28.200;112.870;2023-08-06T07:36:12;19.88;;;14.93;;
41952;SDS011;63613;28.200;112.870;2023-08-06T07:38:40;18.90;;;14.02;;
41952;SDS011;63613;28.200;112.870;2023-08-06T07:41:09;18.55;;;14.20;;
41952;SDS011;63613;28.200;112.870;2023-08-06T07:43:39;22.63;;;15.05;;
41952;SDS011;63613;28.200;112.870;2023-08-06T07:46:13;21.20;;;14.07;;
41952;SDS011;63613;28.200;112.870;2023-08-06T07:48:44;18.17;;;13.38;;
41952;SDS011;63613;28.200;112.870;2023-08-06T07:51:14;19.23;;;13.45;;
41952;SDS011;63613;28.200;112.870;2023-08-06T07:53:40;17.08;;;12.98;;
41952;SDS011;63613;28.200;112.870;2023-08-06T07:56:28;17.27;;;11.93;;
41952;SDS011;63613;28.200;112.870;2023-08-06T07:58:55;16.90;;;12.18;;
41952;SDS011;63613;28.200;112.870;2023-08-06T08:01:22;15.98;;;11.93;;
41952;SDS011;63613;28.200;112.870;2023-08-06T08:03:50;15.88;;;12.18;;
41952;SDS011;63613;28.200;112.870;2023-08-06T08:06:38;16.10;;;12.35;;
41952;SDS011;63613;28.200;112.870;2023-08-06T08:09:08;15.82;;;12.07;;
41952;SDS011;63613;28.200;112.870;2023-08-06T08:11:35;17.20;;;12.50;;
41952;SDS011;63613;28.200;112.870;2023-08-06T08:14:04;15.63;;;11.48;;
41952;SDS011;63613;28.200;112.870;2023-08-06T08:16:35;16.88;;;11.68;;
41952;SDS011;63613;28.200;112.870;2023-08-06T08:19:02;14.18;;;10.52;;
41952;SDS011;63613;28.200;112.870;2023-08-06T08:21:29;14.57;;;11.18;;
41952;SDS011;63613;28.200;112.870;2023-08-06T08:23:59;15.98;;;10.25;;
41952;SDS011;63613;28.200;112.870;2023-08-06T08:26:26;15.40;;;11.00;;
41952;SDS011;63613;28.200;112.870;2023-08-06T08:28:53;16.95;;;12.13;;
41952;SDS011;63613;28.200;112.870;2023-08-06T08:31:22;15.73;;;11.13;;
41952;SDS011;63613;28.200;112.870;2023-08-06T08:33:48;14.73;;;11.27;;
41952;SDS011;63613;28.200;112.870;2023-08-06T08:36:15;14.60;;;11.93;;
41952;SDS011;63613;28.200;112.870;2023-08-06T08:38:42;14.27;;;11.10;;
41952;SDS011;63613;28.200;112.870;2023-08-06T08:41:09;14.40;;;11.05;;
41952;SDS011;63613;28.200;112.870;2023-08-06T08:43:56;13.73;;;10.88;;
41952;SDS011;63613;28.200;112.870;2023-08-06T08:46:26;13.43;;;10.85;;
41952;SDS011;63613;28.200;112.870;2023-08-06T08:48:55;15.20;;;11.57;;
41952;SDS011;63613;28.200;112.870;2023-08-06T08:51:24;15.15;;;11.18;;
41952;SDS011;63613;28.200;112.870;2023-08-06T08:53:55;14.30;;;11.57;;
41952;SDS011;63613;28.200;112.870;2023-08-06T08:56:25;13.50;;;11.13;;
41952;SDS011;63613;28.200;112.870;2023-08-06T08:58:54;15.73;;;11.30;;
41952;SDS011;63613;28.200;112.870;2023-08-06T09:01:25;16.15;;;12.02;;
41952;SDS011;63613;28.200;112.870;2023-08-06T09:03:54;14.67;;;11.43;;
41952;SDS011;63613;28.200;112.870;2023-08-06T09:06:23;16.50;;;12.00;;
41952;SDS011;63613;28.200;112.870;2023-08-06T09:08:56;14.88;;;11.35;;
41952;SDS011;63613;28.200;112.870;2023-08-06T09:11:35;18.00;;;11.82;;
41952;SDS011;63613;28.200;112.870;2023-08-06T09:14:11;15.55;;;11.95;;
41952;SDS011;63613;28.200;112.870;2023-08-06T09:16:41;16.88;;;12.00;;
41952;SDS011;63613;28.200;112.870;2023-08-06T09:19:09;15.43;;;11.27;;
41952;SDS011;63613;28.200;112.870;2023-08-06T09:21:46;16.23;;;11.70;;
41952;SDS011;63613;28.200;112.870;2023-08-06T09:24:19;14.40;;;10.70;;
41952;SDS011;63613;28.200;112.870;2023-08-06T09:26:48;15.18;;;10.82;;
41952;SDS011;63613;28.200;112.870;2023-08-06T09:29:15;15.20;;;11.25;;
41952;SDS011;63613;28.200;112.870;2023-08-06T09:31:46;12.18;;;10.68;;
41952;SDS011;63613;28.200;112.870;2023-08-06T09:34:18;15.10;;;11.30;;
41952;SDS011;63613;28.200;112.870;2023-08-06T09:37:07;15.23;;;11.10;;
41952;SDS011;63613;28.200;112.870;2023-08-06T09:39:39;11.48;;;9.50;;
41952;SDS011;63613;28.200;112.870;2023-08-06T09:42:14;12.63;;;9.93;;
41952;SDS011;63613;28.200;112.870;2023-08-06T09:44:44;11.85;;;9.68;;
41952;SDS011;63613;28.200;112.870;2023-08-06T09:47:11;11.38;;;9.82;;
41952;SDS011;63613;28.200;112.870;2023-08-06T09:49:43;14.95;;;10.40;;
41952;SDS011;63613;28.200;112.870;2023-08-06T09:52:14;13.45;;;9.43;;
41952;SDS011;63613;28.200;112.870;2023-08-06T09:54:44;11.27;;;8.85;;
41952;SDS011;63613;28.200;112.870;2023-08-06T09:57:14;12.38;;;10.02;;
41952;SDS011;63613;28.200;112.870;2023-08-06T09:59:42;13.18;;;9.55;;
41952;SDS011;63613;28.200;112.870;2023-08-06T10:02:12;11.70;;;9.38;;
41952;SDS011;63613;28.200;112.870;2023-08-06T10:04:40;12.63;;;9.15;;
41952;SDS011;63613;28.200;112.870;2023-08-06T10:07:10;12.82;;;9.15;;
41952;SDS011;63613;28.200;112.870;2023-08-06T10:09:58;11.23;;;9.13;;
41952;SDS011;63613;28.200;112.870;2023-08-06T10:12:26;12.38;;;8.93;;
41952;SDS011;63613;28.200;112.870;2023-08-06T10:14:57;12.50;;;9.27;;
41952;SDS011;63613;28.200;112.870;2023-08-06T10:17:27;12.85;;;9.32;;
41952;SDS011;63613;28.200;112.870;2023-08-06T10:19:58;14.25;;;9.52;;
41952;SDS011;63613;28.200;112.870;2023-08-06T10:22:26;12.73;;;9.10;;
41952;SDS011;63613;28.200;112.870;2023-08-06T10:25:03;13.50;;;9.73;;
41952;SDS011;63613;28.200;112.870;2023-08-06T10:27:40;19.60;;;11.88;;
41952;SDS011;63613;28.200;112.870;2023-08-06T10:32:58;40.88;;;19.98;;
41952;SDS011;63613;28.200;112.870;2023-08-06T10:35:44;40.08;;;20.90;;
41952;SDS011;63613;28.200;112.870;2023-08-06T10:40:52;52.78;;;25.25;;
41952;SDS011;63613;28.200;112.870;2023-08-06T10:43:48;52.63;;;24.70;;
41952;SDS011;63613;28.200;112.870;2023-08-06T10:46:23;56.92;;;25.83;;
41952;SDS011;63613;28.200;112.870;2023-08-06T10:48:53;54.75;;;26.60;;
41952;SDS011;63613;28.200;112.870;2023-08-06T10:51:20;56.22;;;28.13;;
41952;SDS011;63613;28.200;112.870;2023-08-06T10:53:48;62.92;;;29.52;;
41952;SDS011;63613;28.200;112.870;2023-08-06T10:56:16;67.43;;;29.90;;
41952;SDS011;63613;28.200;112.870;2023-08-06T10:58:48;67.25;;;30.58;;
41952;SDS011;63613;28.200;112.870;2023-08-06T11:01:15;75.82;;;32.13;;
41952;SDS011;63613;28.200;112.870;2023-08-06T11:03:43;70.13;;;32.85;;
41952;SDS011;63613;28.200;112.870;2023-08-06T11:06:17;72.43;;;33.17;;
41952;SDS011;63613;28.200;112.870;2023-08-06T11:08:48;66.60;;;30.92;;
41952;SDS011;63613;28.200;112.870;2023-08-06T11:11:19;59.78;;;28.20;;
41952;SDS011;63613;28.200;112.870;2023-08-06T11:14:06;56.28;;;26.55;;
41952;SDS011;63613;28.200;112.870;2023-08-06T11:16:40;61.67;;;28.85;;
41952;SDS011;63613;28.200;112.870;2023-08-06T11:19:10;66.55;;;31.80;;
41952;SDS011;63613;28.200;112.870;2023-08-06T11:21:39;62.17;;;30.08;;
41952;SDS011;63613;28.200;112.870;2023-08-06T11:24:07;63.08;;;29.75;;
41952;SDS011;63613;28.200;112.870;2023-08-06T11:26:36;64.40;;;30.02;;
41952;SDS011;63613;28.200;112.870;2023-08-06T11:29:05;64.40;;;30.88;;
41952;SDS011;63613;28.200;112.870;2023-08-06T11:31:37;73.28;;;32.45;;
41952;SDS011;63613;28.200;112.870;2023-08-06T11:34:04;61.28;;;31.25;;
41952;SDS011;63613;28.200;112.870;2023-08-06T11:36:31;64.07;;;30.77;;
41952;SDS011;63613;28.200;112.870;2023-08-06T11:38:59;70.72;;;33.03;;
41952;SDS011;63613;28.200;112.870;2023-08-06T11:41:49;67.20;;;32.15;;
41952;SDS011;63613;28.200;112.870;2023-08-06T11:44:36;66.90;;;31.15;;
41952;SDS011;63613;28.200;112.870;2023-08-06T11:47:04;66.15;;;32.35;;
41952;SDS011;63613;28.200;112.870;2023-08-06T11:49:42;58.33;;;29.90;;
41952;SDS011;63613;28.200;112.870;2023-08-06T11:52:19;58.85;;;31.48;;
41952;SDS011;63613;28.200;112.870;2023-08-06T11:55:09;61.53;;;30.00;;
41952;SDS011;63613;28.200;112.870;2023-08-06T11:57:43;54.83;;;27.42;;
41952;SDS011;63613;28.200;112.870;2023-08-06T12:00:12;62.45;;;32.00;;
41952;SDS011;63613;28.200;112.870;2023-08-06T12:02:40;59.22;;;29.08;;
41952;SDS011;63613;28.200;112.870;2023-08-06T12:05:14;57.78;;;30.02;;
41952;SDS011;63613;28.200;112.870;2023-08-06T12:07:43;59.50;;;30.60;;
41952;SDS011;63613;28.200;112.870;2023-08-06T12:10:14;60.45;;;30.60;;
41952;SDS011;63613;28.200;112.870;2023-08-06T12:15:15;54.85;;;29.02;;
41952;SDS011;63613;28.200;112.870;2023-08-06T12:17:42;57.70;;;31.52;;
41952;SDS011;63613;28.200;112.870;2023-08-06T12:20:10;54.47;;;28.75;;
41952;SDS011;63613;28.200;112.870;2023-08-06T12:22:57;55.05;;;28.02;;
41952;SDS011;63613;28.200;112.870;2023-08-06T12:25:26;51.67;;;28.30;;
41952;SDS011;63613;28.200;112.870;2023-08-06T12:27:56;49.80;;;27.58;;
41952;SDS011;63613;28.200;112.870;2023-08-06T12:30:23;50.88;;;27.77;;
41952;SDS011;63613;28.200;112.870;2023-08-06T12:32:50;58.40;;;28.98;;
41952;SDS011;63613;28.200;112.870;2023-08-06T12:35:19;46.55;;;27.73;;
41952;SDS011;63613;28.200;112.870;2023-08-06T12:37:46;54.80;;;27.85;;
41952;SDS011;63613;28.200;112.870;2023-08-06T12:40:15;49.85;;;26.15;;
41952;SDS011;63613;28.200;112.870;2023-08-06T12:42:43;50.92;;;27.77;;
41952;SDS011;63613;28.200;112.870;2023-08-06T12:45:14;46.33;;;26.10;;
41952;SDS011;63613;28.200;112.870;2023-08-06T12:47:41;47.75;;;26.65;;
41952;SDS011;63613;28.200;112.870;2023-08-06T12:50:09;46.17;;;26.45;;
41952;SDS011;63613;28.200;112.870;2023-08-06T12:52:36;46.22;;;25.10;;
41952;SDS011;63613;28.200;112.870;2023-08-06T12:55:02;43.58;;;24.42;;
41952;SDS011;63613;28.200;112.870;2023-08-06T12:57:29;43.80;;;22.75;;
41952;SDS011;63613;28.200;112.870;2023-08-06T13:00:01;40.88;;;24.90;;
41952;SDS011;63613;28.200;112.870;2023-08-06T13:02:49;43.92;;;25.55;;
41952;SDS011;63613;28.200;112.870;2023-08-06T13:05:16;41.78;;;23.80;;
41952;SDS011;63613;28.200;112.870;2023-08-06T13:07:44;40.75;;;23.48;;
41952;SDS011;63613;28.200;112.870;2023-08-06T13:10:12;40.30;;;23.67;;
41952;SDS011;63613;28.200;112.870;2023-08-06T13:12:38;39.20;;;22.67;;
41952;SDS011;63613;28.200;112.870;2023-08-06T13:15:07;39.08;;;22.80;;
41952;SDS011;63613;28.200;112.870;2023-08-06T13:17:35;38.30;;;22.20;;
41952;SDS011;63613;28.200;112.870;2023-08-06T13:20:01;38.70;;;24.23;;
41952;SDS011;63613;28.200;112.870;2023-08-06T13:22:29;39.03;;;22.38;;
41952;SDS011;63613;28.200;112.870;2023-08-06T13:24:56;35.47;;;22.40;;
41952;SDS011;63613;28.200;112.870;2023-08-06T13:27:25;36.75;;;21.45;;
41952;SDS011;63613;28.200;112.870;2023-08-06T13:29:53;34.53;;;20.70;;
41952;SDS011;63613;28.200;112.870;2023-08-06T13:32:22;35.05;;;21.00;;
41952;SDS011;63613;28.200;112.870;2023-08-06T13:34:51;33.60;;;20.30;;
41952;SDS011;63613;28.200;112.870;2023-08-06T13:37:18;34.75;;;21.08;;
41952;SDS011;63613;28.200;112.870;2023-08-06T13:39:44;29.92;;;19.52;;
41952;SDS011;63613;28.200;112.870;2023-08-06T13:42:13;31.33;;;19.70;;
41952;SDS011;63613;28.200;112.870;2023-08-06T13:44:39;32.75;;;20.38;;
41952;SDS011;63613;28.200;112.870;2023-08-06T13:47:07;28.80;;;18.50;;
41952;SDS011;63613;28.200;112.870;2023-08-06T13:49:35;29.23;;;19.95;;
41952;SDS011;63613;28.200;112.870;2023-08-06T13:52:01;28.77;;;20.38;;
41952;SDS011;63613;28.200;112.870;2023-08-06T13:54:29;26.70;;;18.55;;
41952;SDS011;63613;28.200;112.870;2023-08-06T13:56:55;29.17;;;17.92;;
41952;SDS011;63613;28.200;112.870;2023-08-06T13:59:24;26.85;;;17.50;;
41952;SDS011;63613;28.200;112.870;2023-08-06T14:01:54;28.55;;;18.10;;
41952;SDS011;63613;28.200;112.870;2023-08-06T14:04:25;29.10;;;19.38;;
41952;SDS011;63613;28.200;112.870;2023-08-06T14:06:52;28.13;;;17.50;;
41952;SDS011;63613;28.200;112.870;2023-08-06T14:09:19;29.00;;;18.27;;
41952;SDS011;63613;28.200;112.870;2023-08-06T14:11:45;26.90;;;17.45;;
41952;SDS011;63613;28.200;112.870;2023-08-06T14:14:12;27.63;;;17.42;;
41952;SDS011;63613;28.200;112.870;2023-08-06T14:16:39;23.70;;;16.55;;
41952;SDS011;63613;28.200;112.870;2023-08-06T14:19:07;28.88;;;18.83;;
41952;SDS011;63613;28.200;112.870;2023-08-06T14:21:34;27.70;;;17.52;;
41952;SDS011;63613;28.200;112.870;2023-08-06T14:24:05;24.27;;;16.23;;